TAF KBFM
AMD KBFM 091004Z 0910/1006 10009KT P6SM SKC FM091500 11005KT P6SM OVC008 FM092200 14006KT P6SM OVC005=
METAR KBFM
WC KBFM
WS KBFM
WV KBFM